Time;durP1;ratioP1;P1;durP2;ratioP2;P2;SDS_P1;SDS_P2;PMS_P1;PMS_P2;Temp;Humidity;BMP_temperature;BMP_pressure;BME280_temperature;BME280_humidity;BME280_pressure;Samples;Min_cycle;Max_cycle;Signal;HPM_P1;HPM_P2
2023/04/10 00:00:52;;;;;;;83.60;51.25;;;;;;;;;;5024947;28;20202;-67
2023/04/10 00:03:18;;;;;;;87.60;50.57;;;;;;;;;;5022814;28;20609;-67
2023/04/10 00:05:43;;;;;;;89.15;51.58;;;;;;;;;;5026435;28;20277;-67
2023/04/10 00:08:08;;;;;;;86.18;50.45;;;;;;;;;;5025851;28;20190;-67
2023/04/10 00:10:34;;;;;;;84.90;50.43;;;;;;;;;;5020809;28;20240;-67
2023/04/10 00:12:59;;;;;;;84.38;50.88;;;;;;;;;;5025187;28;20217;-68
2023/04/10 00:15:25;;;;;;;84.22;49.50;;;;;;;;;;5021427;28;20190;-68
2023/04/10 00:17:53;;;;;;;88.40;50.28;;;;;;;;;;5027273;28;20594;-68
2023/04/10 00:20:20;;;;;;;82.65;49.60;;;;;;;;;;5021295;28;20202;-68
2023/04/10 00:22:46;;;;;;;84.17;50.57;;;;;;;;;;5022545;28;20186;-68
2023/04/10 00:25:11;;;;;;;82.75;49.28;;;;;;;;;;5022439;28;20225;-68
2023/04/10 00:27:36;;;;;;;88.10;50.03;;;;;;;;;;5020604;28;20709;-69
2023/04/10 00:30:02;;;;;;;80.90;49.63;;;;;;;;;;5019504;28;20274;-67
2023/04/10 00:32:27;;;;;;;82.40;49.92;;;;;;;;;;5014295;28;20227;-67
2023/04/10 00:34:53;;;;;;;77.47;47.67;;;;;;;;;;5020217;28;20265;-67
2023/04/10 00:37:18;;;;;;;79.57;48.13;;;;;;;;;;5020572;28;20194;-67
2023/04/10 00:39:44;;;;;;;80.85;49.30;;;;;;;;;;5025622;28;20186;-68
2023/04/10 00:42:09;;;;;;;80.60;50.08;;;;;;;;;;5019162;28;20235;-67
2023/04/10 00:44:36;;;;;;;78.45;47.78;;;;;;;;;;5023365;28;20221;-67
2023/04/10 00:47:03;;;;;;;80.57;47.70;;;;;;;;;;5021417;28;20607;-68
2023/04/10 00:49:30;;;;;;;82.17;48.93;;;;;;;;;;5024021;28;20190;-67
2023/04/10 00:51:55;;;;;;;79.57;47.60;;;;;;;;;;5027205;28;20186;-67
2023/04/10 00:54:22;;;;;;;77.28;46.55;;;;;;;;;;5025461;28;20259;-67
2023/04/10 00:56:48;;;;;;;79.93;47.90;;;;;;;;;;5026003;28;20276;-67
2023/04/10 00:59:14;;;;;;;77.37;49.27;;;;;;;;;;5025090;28;20233;-67
2023/04/10 01:01:40;;;;;;;78.82;46.92;;;;;;;;;;5021099;28;20254;-68
2023/04/10 01:04:06;;;;;;;78.47;47.07;;;;;;;;;;5023052;28;20210;-67
2023/04/10 01:06:49;;;;;;;80.53;48.43;;;;;;;;;;5022816;28;20186;-67
2023/04/10 01:09:26;;;;;;;74.67;44.27;;;;;;;;;;5024893;28;20244;-68
2023/04/10 01:12:03;;;;;;;72.37;44.37;;;;;;;;;;5022052;28;20660;-67
2023/04/10 01:14:51;;;;;;;76.33;45.37;;;;;;;;;;5023362;28;20763;-68
2023/04/10 01:17:26;;;;;;;72.73;43.13;;;;;;;;;;5024172;28;20252;-66
2023/04/10 01:19:59;;;;;;;71.33;43.23;;;;;;;;;;5020586;28;20291;-67
2023/04/10 01:22:28;;;;;;;65.83;41.50;;;;;;;;;;5024050;28;20657;-67
2023/04/10 01:25:13;;;;;;;66.83;42.67;;;;;;;;;;5020610;28;20819;-68
2023/04/10 01:27:57;;;;;;;73.57;42.87;;;;;;;;;;5023226;28;20194;-68
2023/04/10 01:30:23;;;;;;;72.80;42.93;;;;;;;;;;5019214;28;20653;-67
2023/04/10 01:32:53;;;;;;;70.70;40.97;;;;;;;;;;5020554;28;20226;-68
2023/04/10 01:35:19;;;;;;;72.80;43.70;;;;;;;;;;5019613;28;20194;-67
2023/04/10 01:37:47;;;;;;;70.33;40.67;;;;;;;;;;5023416;28;20193;-68
2023/04/10 01:40:15;;;;;;;64.20;39.47;;;;;;;;;;5020245;28;20201;-67
2023/04/10 01:42:45;;;;;;;62.30;39.57;;;;;;;;;;5024400;28;20194;-68
2023/04/10 01:45:16;;;;;;;67.10;40.37;;;;;;;;;;5026624;28;20209;-68
2023/04/10 01:47:42;;;;;;;64.43;39.27;;;;;;;;;;5019087;28;20206;-67
2023/04/10 01:50:08;;;;;;;68.00;39.80;;;;;;;;;;5027137;28;20197;-68
2023/04/10 01:52:34;;;;;;;66.10;40.33;;;;;;;;;;5021657;28;20699;-68
2023/04/10 01:55:01;;;;;;;63.17;37.47;;;;;;;;;;5020209;28;20278;-67
2023/04/10 01:57:30;;;;;;;67.43;39.33;;;;;;;;;;5025548;28;20191;-67
2023/04/10 01:59:56;;;;;;;64.10;39.07;;;;;;;;;;5024396;28;20251;-68
2023/04/10 02:02:21;;;;;;;62.60;36.77;;;;;;;;;;5025887;28;20194;-67
2023/04/10 02:04:50;;;;;;;64.00;37.27;;;;;;;;;;5026484;28;20520;-68
2023/04/10 02:07:33;;;;;;;69.07;37.33;;;;;;;;;;5025857;28;20182;-67
2023/04/10 02:10:09;;;;;;;57.87;35.50;;;;;;;;;;5025561;28;20202;-67
2023/04/10 02:12:52;;;;;;;60.23;35.30;;;;;;;;;;5024746;28;20190;-68
2023/04/10 02:15:23;;;;;;;60.80;35.33;;;;;;;;;;5020512;28;20721;-67
2023/04/10 02:17:49;;;;;;;62.67;36.10;;;;;;;;;;5029545;28;20212;-68
2023/04/10 02:20:15;;;;;;;58.03;33.07;;;;;;;;;;5030164;28;20202;-68
2023/04/10 02:22:45;;;;;;;61.47;35.07;;;;;;;;;;5034095;28;20534;-68
2023/04/10 02:25:10;;;;;;;63.20;35.27;;;;;;;;;;5029297;28;20210;-67
2023/04/10 02:27:37;;;;;;;60.37;36.10;;;;;;;;;;5029775;28;20328;-67
2023/04/10 02:30:03;;;;;;;61.97;36.13;;;;;;;;;;5024587;28;20195;-68
2023/04/10 02:32:29;;;;;;;63.30;35.77;;;;;;;;;;5023945;28;20256;-68
2023/04/10 02:34:55;;;;;;;61.70;35.40;;;;;;;;;;5022768;28;20666;-67
2023/04/10 02:37:21;;;;;;;62.57;35.00;;;;;;;;;;5027274;28;20216;-67
2023/04/10 02:39:46;;;;;;;64.67;37.00;;;;;;;;;;5020692;28;20571;-68
2023/04/10 02:42:12;;;;;;;66.10;37.20;;;;;;;;;;5027018;28;20652;-67
2023/04/10 02:44:38;;;;;;;68.30;36.47;;;;;;;;;;5025438;28;20253;-66
2023/04/10 02:47:05;;;;;;;63.87;36.80;;;;;;;;;;5027558;28;20598;-67
2023/04/10 02:49:30;;;;;;;66.87;36.63;;;;;;;;;;5017915;28;20218;-67
2023/04/10 02:51:56;;;;;;;64.68;36.75;;;;;;;;;;5019531;28;20551;-68
2023/04/10 02:54:21;;;;;;;64.87;36.43;;;;;;;;;;5027886;28;20691;-68
2023/04/10 02:56:47;;;;;;;65.33;37.30;;;;;;;;;;5025577;28;20738;-68
2023/04/10 02:59:12;;;;;;;66.57;37.43;;;;;;;;;;5021455;28;20205;-68
2023/04/10 03:01:38;;;;;;;69.43;36.63;;;;;;;;;;5026497;28;20597;-67
2023/04/10 03:04:04;;;;;;;65.60;37.40;;;;;;;;;;5012654;28;20305;-67
2023/04/10 03:06:30;;;;;;;69.43;35.87;;;;;;;;;;5029099;28;20672;-67
2023/04/10 03:08:55;;;;;;;68.00;37.90;;;;;;;;;;5020237;28;20202;-67
2023/04/10 03:11:21;;;;;;;69.07;36.23;;;;;;;;;;5024526;28;20520;-68
2023/04/10 03:13:47;;;;;;;70.55;37.60;;;;;;;;;;5020080;28;20229;-67
2023/04/10 03:16:13;;;;;;;69.00;36.97;;;;;;;;;;5025235;28;20190;-68
2023/04/10 03:18:38;;;;;;;74.05;37.58;;;;;;;;;;5028417;28;20197;-66
2023/04/10 03:21:04;;;;;;;68.95;36.75;;;;;;;;;;5022970;28;20668;-67
2023/04/10 03:23:29;;;;;;;68.43;37.47;;;;;;;;;;5023841;28;20273;-68
2023/04/10 03:25:55;;;;;;;64.95;35.63;;;;;;;;;;5025518;28;20553;-68
2023/04/10 03:28:21;;;;;;;65.90;34.80;;;;;;;;;;5026386;28;20182;-67
2023/04/10 03:30:48;;;;;;;55.37;32.60;;;;;;;;;;5021858;28;20315;-68
2023/04/10 03:33:13;;;;;;;56.63;32.05;;;;;;;;;;5022767;28;20205;-68
2023/04/10 03:35:39;;;;;;;56.50;31.60;;;;;;;;;;5023433;28;20206;-68
2023/04/10 03:38:04;;;;;;;52.00;30.50;;;;;;;;;;5023865;28;20560;-69
2023/04/10 03:40:30;;;;;;;54.30;31.37;;;;;;;;;;5024758;28;20190;-70
2023/04/10 03:42:55;;;;;;;50.45;30.15;;;;;;;;;;5028156;28;20236;-68
2023/04/10 03:45:21;;;;;;;54.43;31.07;;;;;;;;;;5026568;28;20291;-68
2023/04/10 03:47:46;;;;;;;48.93;29.80;;;;;;;;;;5021554;28;20209;-68
2023/04/10 03:50:11;;;;;;;46.70;28.97;;;;;;;;;;5026046;28;20296;-67
2023/04/10 03:52:39;;;;;;;50.77;29.47;;;;;;;;;;5026793;28;20186;-67
2023/04/10 03:55:05;;;;;;;52.63;29.70;;;;;;;;;;5017788;28;20202;-68
2023/04/10 03:57:30;;;;;;;46.33;28.07;;;;;;;;;;5021940;28;20187;-68
2023/04/10 03:59:56;;;;;;;48.77;30.10;;;;;;;;;;5022774;28;20195;-67
2023/04/10 04:02:21;;;;;;;49.03;29.13;;;;;;;;;;5024072;28;20194;-68
2023/04/10 04:04:46;;;;;;;52.83;30.43;;;;;;;;;;5023746;28;20249;-68
2023/04/10 04:07:12;;;;;;;50.30;29.40;;;;;;;;;;5024089;28;20752;-67
2023/04/10 04:09:38;;;;;;;49.80;30.77;;;;;;;;;;5025534;28;20633;-67
2023/04/10 04:12:03;;;;;;;50.53;30.20;;;;;;;;;;5028206;28;20675;-68
2023/04/10 04:14:29;;;;;;;51.67;30.17;;;;;;;;;;5026235;28;20712;-67
2023/04/10 04:16:54;;;;;;;49.40;28.27;;;;;;;;;;5020834;28;20224;-67
2023/04/10 04:19:19;;;;;;;49.20;28.90;;;;;;;;;;5036043;28;20194;-67
2023/04/10 04:21:45;;;;;;;48.57;29.53;;;;;;;;;;5027171;28;20194;-67
2023/04/10 04:24:10;;;;;;;57.43;31.30;;;;;;;;;;5027742;28;20726;-68
2023/04/10 04:26:35;;;;;;;50.20;30.53;;;;;;;;;;5021861;28;20668;-69
2023/04/10 04:29:01;;;;;;;54.27;29.97;;;;;;;;;;5018732;28;20241;-67
2023/04/10 04:31:31;;;;;;;52.00;30.70;;;;;;;;;;5024230;28;20238;-68
2023/04/10 04:34:00;;;;;;;54.63;31.60;;;;;;;;;;5020268;28;20264;-67
2023/04/10 04:36:30;;;;;;;54.60;31.67;;;;;;;;;;5021242;28;20272;-66
2023/04/10 04:38:56;;;;;;;50.67;30.80;;;;;;;;;;5025740;28;20205;-67
2023/04/10 04:41:21;;;;;;;53.67;31.27;;;;;;;;;;5021021;28;20216;-68
2023/04/10 04:43:48;;;;;;;52.93;32.07;;;;;;;;;;5019883;28;20539;-67
2023/04/10 04:46:13;;;;;;;54.13;32.93;;;;;;;;;;5027509;28;20609;-67
2023/04/10 04:48:39;;;;;;;53.00;31.63;;;;;;;;;;5020908;28;20248;-67
2023/04/10 04:51:07;;;;;;;55.10;30.77;;;;;;;;;;5017177;28;20191;-68
2023/04/10 04:53:32;;;;;;;55.17;32.33;;;;;;;;;;5019381;28;20241;-67
2023/04/10 04:55:58;;;;;;;55.70;32.43;;;;;;;;;;5022542;28;20631;-67
2023/04/10 04:58:23;;;;;;;56.00;32.27;;;;;;;;;;5021596;28;20194;-67
2023/04/10 05:00:50;;;;;;;53.33;32.37;;;;;;;;;;5018146;28;20206;-67
2023/04/10 05:03:16;;;;;;;57.33;32.97;;;;;;;;;;5020433;28;20190;-67
2023/04/10 05:05:42;;;;;;;57.50;33.73;;;;;;;;;;5017394;28;20689;-67
2023/04/10 05:08:07;;;;;;;63.40;34.83;;;;;;;;;;5016322;28;20746;-67
2023/04/10 05:10:33;;;;;;;68.88;37.63;;;;;;;;;;5022748;28;20197;-67
2023/04/10 05:12:58;;;;;;;72.38;40.08;;;;;;;;;;5009176;28;20299;-67
2023/04/10 05:15:23;;;;;;;77.82;43.28;;;;;;;;;;5021705;28;20190;-67
2023/04/10 05:17:49;;;;;;;76.13;42.10;;;;;;;;;;5016114;28;20185;-68
2023/04/10 05:20:15;;;;;;;81.00;43.27;;;;;;;;;;5018811;28;20190;-67
2023/04/10 05:22:41;;;;;;;85.00;45.55;;;;;;;;;;5018033;28;20197;-68
2023/04/10 05:25:06;;;;;;;81.38;45.05;;;;;;;;;;5020318;28;20236;-67
2023/04/10 05:27:32;;;;;;;80.75;44.70;;;;;;;;;;5018205;28;20689;-68
2023/04/10 05:29:57;;;;;;;82.75;44.03;;;;;;;;;;5024526;28;20578;-67
2023/04/10 05:32:22;;;;;;;82.90;43.65;;;;;;;;;;5014979;28;20369;-67
2023/04/10 05:34:48;;;;;;;81.13;44.63;;;;;;;;;;5019522;28;20193;-67
2023/04/10 05:37:13;;;;;;;82.00;45.00;;;;;;;;;;5019270;28;20202;-68
2023/04/10 05:39:38;;;;;;;80.57;44.15;;;;;;;;;;5022847;28;20793;-68
2023/04/10 05:42:04;;;;;;;76.72;43.78;;;;;;;;;;5017016;28;20193;-68
2023/04/10 05:44:30;;;;;;;79.70;43.05;;;;;;;;;;5020728;28;20210;-68
2023/04/10 05:46:55;;;;;;;77.85;42.33;;;;;;;;;;5024295;28;20186;-68
2023/04/10 05:49:21;;;;;;;71.20;41.22;;;;;;;;;;5020724;28;20194;-67
2023/04/10 05:51:49;;;;;;;76.50;41.88;;;;;;;;;;5025082;28;20197;-67
2023/04/10 05:54:15;;;;;;;72.85;41.25;;;;;;;;;;5027471;28;20190;-69
2023/04/10 05:56:40;;;;;;;69.93;39.78;;;;;;;;;;5028284;28;20268;-68
2023/04/10 05:59:06;;;;;;;68.95;39.47;;;;;;;;;;5026188;28;20207;-68
2023/04/10 06:01:31;;;;;;;70.47;38.90;;;;;;;;;;5023143;28;20597;-68
2023/04/10 06:03:56;;;;;;;64.28;37.42;;;;;;;;;;5021286;28;20290;-68
2023/04/10 06:06:24;;;;;;;61.35;35.25;;;;;;;;;;5019158;28;20198;-68
2023/04/10 06:08:50;;;;;;;61.83;33.67;;;;;;;;;;5022236;28;20857;-68
2023/04/10 06:11:15;;;;;;;56.72;33.83;;;;;;;;;;5017571;28;20213;-68
2023/04/10 06:13:41;;;;;;;56.95;32.20;;;;;;;;;;5022050;28;20297;-68
2023/04/10 06:16:07;;;;;;;53.97;29.85;;;;;;;;;;5021307;28;20193;-68
2023/04/10 06:18:32;;;;;;;49.45;28.42;;;;;;;;;;5023002;28;20263;-68
2023/04/10 06:21:00;;;;;;;47.33;27.75;;;;;;;;;;5017647;28;20285;-67
2023/04/10 06:23:27;;;;;;;39.97;23.83;;;;;;;;;;5020536;28;20266;-68
2023/04/10 06:25:53;;;;;;;38.25;23.42;;;;;;;;;;5028189;28;20240;-67
2023/04/10 06:28:18;;;;;;;37.10;23.48;;;;;;;;;;5023725;28;20192;-68
2023/04/10 06:30:44;;;;;;;39.35;23.77;;;;;;;;;;5019861;28;20275;-67
2023/04/10 06:33:09;;;;;;;36.80;22.05;;;;;;;;;;5024541;28;20513;-68
2023/04/10 06:35:35;;;;;;;38.38;22.42;;;;;;;;;;5024383;28;20674;-68
2023/04/10 06:38:00;;;;;;;34.60;21.35;;;;;;;;;;5025898;28;20193;-67
2023/04/10 06:40:28;;;;;;;33.83;21.13;;;;;;;;;;5027343;28;20255;-68
2023/04/10 06:42:53;;;;;;;32.63;20.70;;;;;;;;;;5025943;28;20300;-68
2023/04/10 06:45:19;;;;;;;34.83;21.30;;;;;;;;;;5021163;28;20309;-68
2023/04/10 06:47:45;;;;;;;33.83;20.52;;;;;;;;;;5021548;28;20186;-70
2023/04/10 06:50:10;;;;;;;34.10;20.90;;;;;;;;;;5026050;28;20270;-69
2023/04/10 06:52:35;;;;;;;29.95;19.25;;;;;;;;;;5027642;28;20198;-69
2023/04/10 06:55:01;;;;;;;31.02;19.48;;;;;;;;;;5028807;28;20607;-69
2023/04/10 06:57:27;;;;;;;30.60;18.98;;;;;;;;;;5027363;28;20293;-68
2023/04/10 06:59:53;;;;;;;28.98;19.65;;;;;;;;;;5022277;28;20539;-69
2023/04/10 07:02:18;;;;;;;27.00;18.48;;;;;;;;;;5025457;28;20194;-68
2023/04/10 07:04:43;;;;;;;32.15;18.98;;;;;;;;;;5018877;28;20214;-68
2023/04/10 07:07:11;;;;;;;28.27;17.80;;;;;;;;;;5026091;28;20189;-68
2023/04/10 07:09:36;;;;;;;24.45;16.65;;;;;;;;;;5025584;28;20650;-67
2023/04/10 07:12:02;;;;;;;27.08;17.27;;;;;;;;;;5025490;28;20324;-68
2023/04/10 07:14:28;;;;;;;26.75;16.77;;;;;;;;;;5017529;28;20194;-69
2023/04/10 07:16:53;;;;;;;26.45;16.65;;;;;;;;;;5020377;28;20186;-68
2023/04/10 07:19:19;;;;;;;24.85;16.35;;;;;;;;;;5019705;28;20178;-67
2023/04/10 07:21:48;;;;;;;26.98;17.10;;;;;;;;;;5016846;28;20205;-69
2023/04/10 07:24:15;;;;;;;25.73;16.25;;;;;;;;;;5024863;28;20212;-69
2023/04/10 07:26:40;;;;;;;23.17;15.68;;;;;;;;;;5024548;28;20919;-68
2023/04/10 07:29:06;;;;;;;21.58;14.73;;;;;;;;;;5019522;28;20190;-68
2023/04/10 07:31:31;;;;;;;20.80;14.07;;;;;;;;;;5024832;28;20225;-69
2023/04/10 07:33:57;;;;;;;22.00;14.93;;;;;;;;;;5022884;28;20194;-68
2023/04/10 07:36:22;;;;;;;19.35;13.73;;;;;;;;;;5024219;28;20340;-69
2023/04/10 07:38:47;;;;;;;19.20;12.60;;;;;;;;;;5023145;28;20205;-68
2023/04/10 07:41:13;;;;;;;19.73;12.82;;;;;;;;;;5032974;28;20191;-69
2023/04/10 07:43:38;;;;;;;19.27;12.57;;;;;;;;;;5025477;28;20368;-68
2023/04/10 07:46:04;;;;;;;19.45;12.80;;;;;;;;;;5021741;28;20198;-70
2023/04/10 07:48:29;;;;;;;17.65;12.40;;;;;;;;;;5026114;28;21710;-69
2023/04/10 07:50:55;;;;;;;18.00;12.48;;;;;;;;;;5020833;28;20186;-69
2023/04/10 07:53:20;;;;;;;21.00;12.32;;;;;;;;;;5022434;28;20557;-68
2023/04/10 07:55:48;;;;;;;18.08;11.30;;;;;;;;;;5024143;28;20183;-68
2023/04/10 07:58:15;;;;;;;16.67;11.55;;;;;;;;;;5023077;28;20217;-68
2023/04/10 08:00:40;;;;;;;17.23;11.85;;;;;;;;;;5017118;28;20226;-68
2023/04/10 08:03:06;;;;;;;18.75;11.88;;;;;;;;;;5025439;28;20643;-67
2023/04/10 08:05:31;;;;;;;20.42;11.65;;;;;;;;;;5022618;28;20212;-69
2023/04/10 08:07:57;;;;;;;14.95;11.43;;;;;;;;;;5024956;28;20851;-67
2023/04/10 08:10:22;;;;;;;16.88;10.98;;;;;;;;;;5022579;28;20205;-68
2023/04/10 08:12:48;;;;;;;15.98;10.82;;;;;;;;;;5021443;28;20606;-67
2023/04/10 08:15:13;;;;;;;16.10;11.30;;;;;;;;;;5025527;28;20209;-66
2023/04/10 08:17:39;;;;;;;16.15;11.38;;;;;;;;;;5021954;28;20186;-69
2023/04/10 08:20:05;;;;;;;16.85;11.65;;;;;;;;;;5023174;28;20194;-68
2023/04/10 08:22:30;;;;;;;15.65;11.23;;;;;;;;;;5016921;28;20198;-67
2023/04/10 08:24:56;;;;;;;17.15;11.93;;;;;;;;;;5017846;28;20420;-67
2023/04/10 08:27:21;;;;;;;18.10;12.65;;;;;;;;;;5020511;28;20186;-67
2023/04/10 08:29:47;;;;;;;16.90;11.07;;;;;;;;;;5018634;28;20306;-67
2023/04/10 08:32:12;;;;;;;14.30;10.70;;;;;;;;;;5019120;28;20237;-67
2023/04/10 08:34:38;;;;;;;15.77;11.52;;;;;;;;;;5024188;28;20527;-67
2023/04/10 08:37:08;;;;;;;17.00;10.90;;;;;;;;;;5022473;28;20190;-67
2023/04/10 08:39:35;;;;;;;17.08;11.27;;;;;;;;;;5022029;28;20287;-67
2023/04/10 08:42:00;;;;;;;15.82;10.63;;;;;;;;;;5024211;28;20209;-68
2023/04/10 08:44:26;;;;;;;19.83;10.35;;;;;;;;;;5022648;28;20566;-67
2023/04/10 08:46:52;;;;;;;13.50;10.02;;;;;;;;;;5023215;28;20186;-69
2023/04/10 08:49:29;;;;;;;14.63;10.20;;;;;;;;;;5021535;28;20210;-67
2023/04/10 08:51:59;;;;;;;15.27;10.45;;;;;;;;;;5022983;28;20198;-68
2023/04/10 08:54:27;;;;;;;12.52;9.52;;;;;;;;;;5021796;28;20194;-67
2023/04/10 08:56:53;;;;;;;15.90;9.63;;;;;;;;;;5020039;28;20541;-66
2023/04/10 08:59:19;;;;;;;11.52;8.77;;;;;;;;;;5022083;28;20245;-67
2023/04/10 09:01:46;;;;;;;10.63;8.13;;;;;;;;;;5023419;28;20285;-66
2023/04/10 09:04:12;;;;;;;15.35;9.13;;;;;;;;;;5024563;28;20202;-67
2023/04/10 09:06:37;;;;;;;10.73;8.40;;;;;;;;;;5023989;28;20217;-67
2023/04/10 09:09:05;;;;;;;10.93;7.97;;;;;;;;;;5022445;28;20725;-67
2023/04/10 09:11:55;;;;;;;12.55;8.60;;;;;;;;;;5022393;28;20218;-67
2023/04/10 09:14:22;;;;;;;11.10;7.57;;;;;;;;;;5023040;28;20208;-67
2023/04/10 09:16:48;;;;;;;11.88;7.38;;;;;;;;;;5021363;28;20213;-68
2023/04/10 09:19:29;;;;;;;10.23;7.78;;;;;;;;;;5022314;28;20186;-66
2023/04/10 09:21:55;;;;;;;8.52;6.55;;;;;;;;;;5019934;28;20205;-67
2023/04/10 09:24:22;;;;;;;6.90;6.20;;;;;;;;;;5021270;28;20218;-67
2023/04/10 09:26:47;;;;;;;8.35;6.47;;;;;;;;;;5021922;28;20514;-67
2023/04/10 09:29:12;;;;;;;7.93;5.97;;;;;;;;;;5020843;28;20178;-67
2023/04/10 09:31:38;;;;;;;9.13;6.53;;;;;;;;;;5019806;28;20234;-67
2023/04/10 09:34:11;;;;;;;8.18;6.28;;;;;;;;;;5020430;28;20285;-67
2023/04/10 09:36:36;;;;;;;7.95;6.30;;;;;;;;;;5021832;28;20190;-66
2023/04/10 09:39:04;;;;;;;7.13;5.80;;;;;;;;;;5022053;28;20688;-68
2023/04/10 09:41:29;;;;;;;8.20;6.20;;;;;;;;;;5019586;28;20204;-68
2023/04/10 09:44:10;;;;;;;7.13;5.40;;;;;;;;;;5019103;28;20186;-67
2023/04/10 09:46:36;;;;;;;7.65;6.20;;;;;;;;;;5018603;28;20194;-67
2023/04/10 09:49:03;;;;;;;6.88;5.75;;;;;;;;;;5019040;28;20557;-68
2023/04/10 09:51:34;;;;;;;7.65;5.57;;;;;;;;;;5023297;28;20182;-67
2023/04/10 09:54:01;;;;;;;7.18;5.45;;;;;;;;;;5020522;28;20205;-67
2023/04/10 09:56:28;;;;;;;10.38;5.65;;;;;;;;;;5017765;28;20182;-66
2023/04/10 09:58:58;;;;;;;6.35;5.25;;;;;;;;;;5022455;28;21158;-67
2023/04/10 10:01:28;;;;;;;6.45;5.38;;;;;;;;;;5019938;28;20205;-67
2023/04/10 10:03:55;;;;;;;7.47;5.00;;;;;;;;;;5021743;28;20560;-67
2023/04/10 10:06:22;;;;;;;6.07;4.95;;;;;;;;;;5020178;28;20209;-67
2023/04/10 10:08:48;;;;;;;7.00;5.20;;;;;;;;;;5022819;28;20387;-65
2023/04/10 10:11:18;;;;;;;6.18;4.75;;;;;;;;;;5021415;28;20537;-66
2023/04/10 10:13:51;;;;;;;7.38;5.28;;;;;;;;;;5022685;28;20208;-66
2023/04/10 10:16:42;;;;;;;6.82;4.80;;;;;;;;;;5021041;28;20209;-66
2023/04/10 10:19:12;;;;;;;6.80;4.78;;;;;;;;;;5019375;28;20203;-66
2023/04/10 10:21:41;;;;;;;8.88;4.57;;;;;;;;;;5022920;28;20622;-66
2023/04/10 10:24:07;;;;;;;6.75;4.30;;;;;;;;;;5021840;28;20260;-66
2023/04/10 10:26:34;;;;;;;5.43;4.35;;;;;;;;;;5021021;28;20605;-66
2023/04/10 10:29:05;;;;;;;5.93;4.75;;;;;;;;;;5021215;28;20182;-67
2023/04/10 10:31:33;;;;;;;5.35;4.30;;;;;;;;;;5021310;28;20238;-66
2023/04/10 10:34:03;;;;;;;7.30;5.13;;;;;;;;;;5020354;28;20252;-66
2023/04/10 10:36:30;;;;;;;5.90;4.40;;;;;;;;;;5023084;28;20209;-66
2023/04/10 10:39:23;;;;;;;5.72;4.53;;;;;;;;;;5023482;28;20648;-67
2023/04/10 10:42:07;;;;;;;5.82;4.45;;;;;;;;;;5025502;28;20198;-66
2023/04/10 10:44:43;;;;;;;5.82;4.40;;;;;;;;;;5022531;28;20205;-66
2023/04/10 10:47:16;;;;;;;7.20;4.78;;;;;;;;;;5025689;28;20190;-67
2023/04/10 10:49:55;;;;;;;6.28;4.72;;;;;;;;;;5026630;28;20191;-69
2023/04/10 10:52:47;;;;;;;6.10;4.55;;;;;;;;;;5025814;28;20737;-67
2023/04/10 10:55:34;;;;;;;6.55;4.47;;;;;;;;;;5022946;28;20198;-66
2023/04/10 10:58:05;;;;;;;6.80;4.25;;;;;;;;;;5021585;28;20675;-67
2023/04/10 11:00:48;;;;;;;7.53;4.70;;;;;;;;;;5022622;28;20199;-67
2023/04/10 11:03:14;;;;;;;5.13;4.10;;;;;;;;;;5020369;28;20222;-67
2023/04/10 11:05:54;;;;;;;7.50;4.70;;;;;;;;;;5023088;28;20256;-67
2023/04/10 11:08:50;;;;;;;5.90;4.38;;;;;;;;;;5017201;28;20186;-67
2023/04/10 11:11:26;;;;;;;5.38;4.20;;;;;;;;;;5026151;28;20228;-68
2023/04/10 11:13:51;;;;;;;6.05;4.40;;;;;;;;;;5018441;28;20188;-67
2023/04/10 11:16:17;;;;;;;6.10;4.50;;;;;;;;;;5017903;28;20191;-67
2023/04/10 11:18:46;;;;;;;6.80;4.53;;;;;;;;;;5012959;28;20186;-67
2023/04/10 11:21:21;;;;;;;6.32;4.78;;;;;;;;;;5022000;28;20197;-67
2023/04/10 11:23:49;;;;;;;6.22;4.60;;;;;;;;;;5016499;28;20201;-67
2023/04/10 11:26:37;;;;;;;6.25;3.88;;;;;;;;;;5018777;28;20210;-67
2023/04/10 11:29:25;;;;;;;8.15;4.63;;;;;;;;;;5020643;28;20653;-68
2023/04/10 11:32:04;;;;;;;6.07;4.50;;;;;;;;;;5006834;28;20233;-68
2023/04/10 11:34:31;;;;;;;6.50;4.55;;;;;;;;;;5010485;28;20596;-68
2023/04/10 11:36:56;;;;;;;5.75;4.60;;;;;;;;;;5020681;28;20190;-67
2023/04/10 11:39:22;;;;;;;6.10;4.82;;;;;;;;;;5019700;28;20186;-66
2023/04/10 11:41:52;;;;;;;6.38;4.20;;;;;;;;;;5018540;28;20187;-67
2023/04/10 11:44:25;;;;;;;8.95;4.50;;;;;;;;;;5020536;28;20214;-67
2023/04/10 11:46:51;;;;;;;6.45;4.72;;;;;;;;;;5026863;28;20194;-69
2023/04/10 11:49:19;;;;;;;4.45;3.75;;;;;;;;;;5024865;28;20280;-68
2023/04/10 11:51:46;;;;;;;5.72;4.22;;;;;;;;;;5027814;28;20522;-67
2023/04/10 11:54:14;;;;;;;6.35;4.47;;;;;;;;;;5021334;28;20179;-67
2023/04/10 11:56:44;;;;;;;4.75;4.10;;;;;;;;;;5014074;28;20195;-66
2023/04/10 11:59:12;;;;;;;6.30;4.03;;;;;;;;;;5024967;28;20193;-67
2023/04/10 12:01:41;;;;;;;5.00;3.90;;;;;;;;;;5018706;28;20619;-67
2023/04/10 12:04:17;;;;;;;4.75;4.05;;;;;;;;;;5019074;28;20430;-67
2023/04/10 12:06:44;;;;;;;6.20;3.70;;;;;;;;;;5022101;28;20185;-67
2023/04/10 12:09:14;;;;;;;5.25;3.70;;;;;;;;;;5018327;28;20179;-66
2023/04/10 12:12:03;;;;;;;5.32;3.63;;;;;;;;;;5009108;28;20245;-65
2023/04/10 12:14:32;;;;;;;7.40;4.13;;;;;;;;;;5016996;28;20197;-66
2023/04/10 12:16:58;;;;;;;5.25;3.85;;;;;;;;;;5019744;28;20409;-66
2023/04/10 12:19:24;;;;;;;5.03;3.58;;;;;;;;;;5023356;28;20194;-67
2023/04/10 12:21:50;;;;;;;6.57;3.65;;;;;;;;;;5019052;28;20179;-67
2023/04/10 12:24:41;;;;;;;6.53;3.40;;;;;;;;;;5020058;28;20244;-67
2023/04/10 12:27:08;;;;;;;3.90;3.42;;;;;;;;;;5018287;28;20194;-67
2023/04/10 12:29:33;;;;;;;4.82;3.67;;;;;;;;;;5013257;28;20194;-67
2023/04/10 12:32:07;;;;;;;5.50;3.22;;;;;;;;;;5008959;28;20242;-66
2023/04/10 12:34:33;;;;;;;4.10;3.25;;;;;;;;;;5013898;28;20264;-66
2023/04/10 12:36:58;;;;;;;3.95;3.35;;;;;;;;;;5016103;28;20751;-67
2023/04/10 12:39:24;;;;;;;3.78;3.13;;;;;;;;;;5018756;28;20288;-66
2023/04/10 12:41:49;;;;;;;4.88;3.70;;;;;;;;;;5024539;28;20194;-66
2023/04/10 12:44:15;;;;;;;5.15;3.20;;;;;;;;;;5023222;28;20690;-67
2023/04/10 12:46:41;;;;;;;5.35;3.40;;;;;;;;;;5019205;28;20193;-66
2023/04/10 12:49:19;;;;;;;4.38;3.28;;;;;;;;;;5018871;28;20220;-66
2023/04/10 12:51:47;;;;;;;4.00;3.30;;;;;;;;;;5016756;28;20186;-67
2023/04/10 12:54:30;;;;;;;3.50;3.05;;;;;;;;;;5019252;28;20182;-66
2023/04/10 12:56:56;;;;;;;5.47;3.20;;;;;;;;;;5010836;28;20277;-67
2023/04/10 12:59:22;;;;;;;4.53;3.28;;;;;;;;;;5015200;28;20697;-66
2023/04/10 13:01:48;;;;;;;3.80;3.20;;;;;;;;;;5018794;28;20666;-66
2023/04/10 13:04:13;;;;;;;4.07;3.00;;;;;;;;;;5022783;28;20210;-66
2023/04/10 13:06:46;;;;;;;5.00;3.53;;;;;;;;;;5023776;28;20194;-66
2023/04/10 13:09:12;;;;;;;4.93;3.28;;;;;;;;;;5020750;28;20187;-66
2023/04/10 13:11:38;;;;;;;4.68;3.40;;;;;;;;;;5023258;28;20594;-66
2023/04/10 13:14:04;;;;;;;4.32;3.53;;;;;;;;;;5011120;28;20253;-69
2023/04/10 13:16:29;;;;;;;5.00;3.20;;;;;;;;;;5020145;28;20274;-66
2023/04/10 13:18:55;;;;;;;3.83;3.15;;;;;;;;;;5018918;28;20537;-67
2023/04/10 13:21:24;;;;;;;5.32;3.83;;;;;;;;;;5017916;28;20556;-65
2023/04/10 13:23:50;;;;;;;5.68;3.38;;;;;;;;;;5017568;28;20197;-67
2023/04/10 13:26:16;;;;;;;4.80;3.35;;;;;;;;;;5019244;28;20186;-67
2023/04/10 13:28:41;;;;;;;4.53;3.55;;;;;;;;;;5015124;28;20642;-67
2023/04/10 13:31:06;;;;;;;5.60;3.40;;;;;;;;;;5023272;28;20246;-67
2023/04/10 13:33:32;;;;;;;4.88;3.80;;;;;;;;;;5032341;28;20555;-66
2023/04/10 13:35:57;;;;;;;4.63;3.33;;;;;;;;;;5020837;28;20198;-66
2023/04/10 13:38:22;;;;;;;4.60;3.65;;;;;;;;;;5020161;28;20198;-66
2023/04/10 13:40:48;;;;;;;7.25;3.70;;;;;;;;;;5017454;28;20221;-67
2023/04/10 13:43:13;;;;;;;6.63;3.45;;;;;;;;;;5025327;28;20194;-66
2023/04/10 13:45:39;;;;;;;5.53;3.50;;;;;;;;;;5025603;28;20271;-66
2023/04/10 13:48:06;;;;;;;4.00;3.30;;;;;;;;;;5021182;28;20377;-66
2023/04/10 13:50:33;;;;;;;5.20;3.33;;;;;;;;;;5029425;28;20233;-67
2023/04/10 13:52:58;;;;;;;4.53;3.40;;;;;;;;;;5022044;28;20197;-67
2023/04/10 13:55:24;;;;;;;4.10;3.40;;;;;;;;;;5015352;28;20179;-66
2023/04/10 13:57:49;;;;;;;5.40;3.75;;;;;;;;;;5026248;28;20198;-66
2023/04/10 14:00:15;;;;;;;4.50;3.35;;;;;;;;;;5025394;28;20244;-67
2023/04/10 14:02:40;;;;;;;4.78;3.40;;;;;;;;;;5023567;28;20667;-66
2023/04/10 14:05:06;;;;;;;4.95;3.40;;;;;;;;;;5017075;28;20206;-66
2023/04/10 14:07:32;;;;;;;4.32;3.47;;;;;;;;;;5022701;28;20269;-66
2023/04/10 14:09:58;;;;;;;3.88;2.78;;;;;;;;;;5021606;28;20265;-66
2023/04/10 14:12:23;;;;;;;3.58;3.10;;;;;;;;;;5014403;28;20216;-66
2023/04/10 14:14:49;;;;;;;4.55;3.20;;;;;;;;;;5021681;28;20186;-66
2023/04/10 14:17:14;;;;;;;5.45;3.40;;;;;;;;;;5028826;28;20662;-66
2023/04/10 14:19:40;;;;;;;4.60;3.22;;;;;;;;;;5026677;28;20232;-66
2023/04/10 14:22:06;;;;;;;4.75;3.67;;;;;;;;;;5024836;28;20218;-66
2023/04/10 14:24:31;;;;;;;4.40;3.30;;;;;;;;;;5027354;28;20214;-65
2023/04/10 14:27:00;;;;;;;4.75;3.53;;;;;;;;;;5022570;28;20190;-66
2023/04/10 14:29:25;;;;;;;4.20;3.10;;;;;;;;;;5027397;28;20198;-66